sensor_id;sensor_type;location;lat;lon;timestamp;pressure;altitude;pressure_sealevel;temperature;humidity
48630;BME280;34426;52.180;4.462;2022-08-19T00:01:55;150465.25;;;18.08;100.00
48630;BME280;34426;52.180;4.462;2022-08-19T00:04:24;150476.53;;;18.13;100.00
48630;BME280;34426;52.180;4.462;2022-08-19T00:06:53;150474.00;;;18.12;100.00
48630;BME280;34426;52.180;4.462;2022-08-19T00:09:21;150481.53;;;18.15;100.00
48630;BME280;34426;52.180;4.462;2022-08-19T00:11:50;150491.53;;;18.19;100.00
48630;BME280;34426;52.180;4.462;2022-08-19T00:14:19;150492.78;;;18.19;100.00
48630;BME280;34426;52.180;4.462;2022-08-19T00:16:47;150495.31;;;18.20;100.00
48630;BME280;34426;52.180;4.462;2022-08-19T00:19:17;150485.31;;;18.16;100.00
48630;BME280;34426;52.180;4.462;2022-08-19T00:21:45;150472.78;;;18.11;100.00
48630;BME280;34426;52.180;4.462;2022-08-19T00:24:14;150447.72;;;18.01;100.00
48630;BME280;34426;52.180;4.462;2022-08-19T00:26:42;150457.72;;;18.05;100.00
48630;BME280;34426;52.180;4.462;2022-08-19T00:29:11;150460.25;;;18.06;100.00
48630;BME280;34426;52.180;4.462;2022-08-19T00:31:39;150464.00;;;18.08;100.00
48630;BME280;34426;52.180;4.462;2022-08-19T00:34:06;150457.72;;;18.05;100.00
48630;BME280;34426;52.180;4.462;2022-08-19T00:36:35;150447.72;;;18.01;100.00
48630;BME280;34426;52.180;4.462;2022-08-19T00:39:03;150430.16;;;17.94;100.00
48630;BME280;34426;52.180;4.462;2022-08-19T00:41:31;150422.66;;;17.91;100.00
48630;BME280;34426;52.180;4.462;2022-08-19T00:44:00;150393.78;;;17.79;100.00
48630;BME280;34426;52.180;4.462;2022-08-19T00:46:29;150392.53;;;17.78;100.00
48630;BME280;34426;52.180;4.462;2022-08-19T00:48:57;150382.47;;;17.74;100.00
48630;BME280;34426;52.180;4.462;2022-08-19T00:51:26;150362.47;;;17.66;100.00
48630;BME280;34426;52.180;4.462;2022-08-19T00:53:57;150337.41;;;17.56;100.00
48630;BME280;34426;52.180;4.462;2022-08-19T00:56:25;150328.59;;;17.52;100.00
48630;BME280;34426;52.180;4.462;2022-08-19T00:58:57;150319.84;;;17.49;100.00
48630;BME280;34426;52.180;4.462;2022-08-19T01:01:25;150327.38;;;17.52;100.00
48630;BME280;34426;52.180;4.462;2022-08-19T01:03:53;150324.88;;;17.51;100.00
48630;BME280;34426;52.180;4.462;2022-08-19T01:06:21;150329.88;;;17.53;100.00
48630;BME280;34426;52.180;4.462;2022-08-19T01:08:49;150332.38;;;17.54;100.00
48630;BME280;34426;52.180;4.462;2022-08-19T01:11:18;150327.38;;;17.52;100.00
48630;BME280;34426;52.180;4.462;2022-08-19T01:13:46;150336.13;;;17.55;100.00
48630;BME280;34426;52.180;4.462;2022-08-19T01:16:14;150336.13;;;17.55;100.00
48630;BME280;34426;52.180;4.462;2022-08-19T01:18:43;150347.41;;;17.60;100.00
48630;BME280;34426;52.180;4.462;2022-08-19T01:21:15;150344.91;;;17.59;100.00
48630;BME280;34426;52.180;4.462;2022-08-19T01:23:47;150344.91;;;17.59;100.00
48630;BME280;34426;52.180;4.462;2022-08-19T01:26:16;150342.41;;;17.58;100.00
48630;BME280;34426;52.180;4.462;2022-08-19T01:28:45;150347.41;;;17.60;100.00
48630;BME280;34426;52.180;4.462;2022-08-19T01:31:15;150339.91;;;17.57;100.00
48630;BME280;34426;52.180;4.462;2022-08-19T01:33:43;150322.38;;;17.50;100.00
48630;BME280;34426;52.180;4.462;2022-08-19T01:36:13;150317.38;;;17.48;100.00
48630;BME280;34426;52.180;4.462;2022-08-19T01:38:42;150292.31;;;17.37;100.00
48630;BME280;34426;52.180;4.462;2022-08-19T01:41:12;150277.25;;;17.31;100.00
48630;BME280;34426;52.180;4.462;2022-08-19T01:43:40;150269.72;;;17.28;100.00
48630;BME280;34426;52.180;4.462;2022-08-19T01:46:07;150272.25;;;17.29;100.00
48630;BME280;34426;52.180;4.462;2022-08-19T01:48:36;150267.25;;;17.27;100.00
48630;BME280;34426;52.180;4.462;2022-08-19T01:51:04;150255.97;;;17.22;100.00
48630;BME280;34426;52.180;4.462;2022-08-19T01:53:31;150249.72;;;17.20;100.00
48630;BME280;34426;52.180;4.462;2022-08-19T01:55:59;150252.22;;;17.21;100.00
48630;BME280;34426;52.180;4.462;2022-08-19T01:58:33;150233.44;;;17.13;100.00
48630;BME280;34426;52.180;4.462;2022-08-19T02:01:02;150219.69;;;17.07;100.00
48630;BME280;34426;52.180;4.462;2022-08-19T02:03:30;150217.16;;;17.06;100.00
48630;BME280;34426;52.180;4.462;2022-08-19T02:05:58;150198.34;;;16.99;100.00
48630;BME280;34426;52.180;4.462;2022-08-19T02:08:27;150209.63;;;17.03;100.00
48630;BME280;34426;52.180;4.462;2022-08-19T02:10:54;150203.38;;;17.01;100.00
48630;BME280;34426;52.180;4.462;2022-08-19T02:13:25;150215.91;;;17.06;100.00
48630;BME280;34426;52.180;4.462;2022-08-19T02:15:54;150217.16;;;17.06;100.00
48630;BME280;34426;52.180;4.462;2022-08-19T02:18:22;150210.88;;;17.04;100.00
48630;BME280;34426;52.180;4.462;2022-08-19T02:20:49;150199.63;;;16.99;100.00
48630;BME280;34426;52.180;4.462;2022-08-19T02:23:17;150224.69;;;17.10;100.00
48630;BME280;34426;52.180;4.462;2022-08-19T02:25:46;150219.69;;;17.07;100.00
48630;BME280;34426;52.180;4.462;2022-08-19T02:28:14;150220.91;;;17.08;100.00
48630;BME280;34426;52.180;4.462;2022-08-19T02:30:42;150233.44;;;17.13;100.00
48630;BME280;34426;52.180;4.462;2022-08-19T02:33:12;150267.25;;;17.27;100.00
48630;BME280;34426;52.180;4.462;2022-08-19T02:35:42;150267.25;;;17.27;100.00
48630;BME280;34426;52.180;4.462;2022-08-19T02:38:11;150278.53;;;17.32;100.00
48630;BME280;34426;52.180;4.462;2022-08-19T02:40:38;150294.78;;;17.38;100.00
48630;BME280;34426;52.180;4.462;2022-08-19T02:43:07;150293.53;;;17.38;100.00
48630;BME280;34426;52.180;4.462;2022-08-19T02:45:36;150287.31;;;17.35;100.00
48630;BME280;34426;52.180;4.462;2022-08-19T02:48:04;150274.78;;;17.30;100.00
48630;BME280;34426;52.180;4.462;2022-08-19T02:50:33;150323.59;;;17.50;100.00
48630;BME280;34426;52.180;4.462;2022-08-19T02:53:02;150342.41;;;17.58;100.00
48630;BME280;34426;52.180;4.462;2022-08-19T02:55:30;150333.66;;;17.54;100.00
48630;BME280;34426;52.180;4.462;2022-08-19T02:57:57;150353.66;;;17.62;100.00
48630;BME280;34426;52.180;4.462;2022-08-19T03:00:25;150343.66;;;17.58;100.00
48630;BME280;34426;52.180;4.462;2022-08-19T03:02:52;150332.38;;;17.54;100.00
48630;BME280;34426;52.180;4.462;2022-08-19T03:05:20;150336.13;;;17.55;100.00
48630;BME280;34426;52.180;4.462;2022-08-19T03:07:49;150332.38;;;17.54;100.00
48630;BME280;34426;52.180;4.462;2022-08-19T03:10:17;150331.13;;;17.53;100.00
48630;BME280;34426;52.180;4.462;2022-08-19T03:12:44;150322.38;;;17.50;100.00
48630;BME280;34426;52.180;4.462;2022-08-19T03:15:11;150322.38;;;17.50;100.00
48630;BME280;34426;52.180;4.462;2022-08-19T03:17:39;150327.38;;;17.52;100.00
48630;BME280;34426;52.180;4.462;2022-08-19T03:20:07;150329.88;;;17.53;100.00
48630;BME280;34426;52.180;4.462;2022-08-19T03:22:35;150319.84;;;17.49;100.00
48630;BME280;34426;52.180;4.462;2022-08-19T03:25:04;150316.06;;;17.47;100.00
48630;BME280;34426;52.180;4.462;2022-08-19T03:27:32;150332.38;;;17.54;100.00
48630;BME280;34426;52.180;4.462;2022-08-19T03:29:59;150338.66;;;17.56;100.00
48630;BME280;34426;52.180;4.462;2022-08-19T03:32:27;150342.41;;;17.58;100.00
48630;BME280;34426;52.180;4.462;2022-08-19T03:34:54;150351.19;;;17.61;100.00
48630;BME280;34426;52.180;4.462;2022-08-19T03:37:21;150342.41;;;17.58;100.00
48630;BME280;34426;52.180;4.462;2022-08-19T03:39:49;150357.44;;;17.64;100.00
48630;BME280;34426;52.180;4.462;2022-08-19T03:42:18;150354.94;;;17.63;100.00
48630;BME280;34426;52.180;4.462;2022-08-19T03:44:46;150347.41;;;17.60;100.00
48630;BME280;34426;52.180;4.462;2022-08-19T03:47:13;150348.66;;;17.60;100.00
48630;BME280;34426;52.180;4.462;2022-08-19T03:49:41;150327.38;;;17.52;100.00
48630;BME280;34426;52.180;4.462;2022-08-19T03:52:08;150318.59;;;17.48;100.00
48630;BME280;34426;52.180;4.462;2022-08-19T03:54:36;150324.88;;;17.51;100.00
48630;BME280;34426;52.180;4.462;2022-08-19T03:57:04;150322.38;;;17.50;100.00
48630;BME280;34426;52.180;4.462;2022-08-19T03:59:35;150329.88;;;17.53;100.00
48630;BME280;34426;52.180;4.462;2022-08-19T04:02:07;150329.88;;;17.53;100.00
48630;BME280;34426;52.180;4.462;2022-08-19T04:04:34;150324.88;;;17.51;100.00
48630;BME280;34426;52.180;4.462;2022-08-19T04:07:02;150308.59;;;17.44;100.00
48630;BME280;34426;52.180;4.462;2022-08-19T04:09:30;150326.13;;;17.51;100.00
48630;BME280;34426;52.180;4.462;2022-08-19T04:11:58;150327.38;;;17.52;100.00
48630;BME280;34426;52.180;4.462;2022-08-19T04:14:27;150314.84;;;17.46;100.00
48630;BME280;34426;52.180;4.462;2022-08-19T04:16:57;150314.84;;;17.46;100.00
48630;BME280;34426;52.180;4.462;2022-08-19T04:19:26;150304.84;;;17.42;100.00
48630;BME280;34426;52.180;4.462;2022-08-19T04:21:55;150293.53;;;17.38;100.00
48630;BME280;34426;52.180;4.462;2022-08-19T04:24:23;150279.78;;;17.32;100.00
48630;BME280;34426;52.180;4.462;2022-08-19T04:26:51;150271.00;;;17.29;100.00
48630;BME280;34426;52.180;4.462;2022-08-19T04:29:19;150258.50;;;17.23;100.00
48630;BME280;34426;52.180;4.462;2022-08-19T04:31:47;150267.25;;;17.27;100.00
48630;BME280;34426;52.180;4.462;2022-08-19T04:34:19;150273.50;;;17.30;100.00
48630;BME280;34426;52.180;4.462;2022-08-19T04:36:46;150292.31;;;17.37;100.00
48630;BME280;34426;52.180;4.462;2022-08-19T04:39:16;150296.06;;;17.39;100.00
48630;BME280;34426;52.180;4.462;2022-08-19T04:41:45;150284.78;;;17.34;100.00
48630;BME280;34426;52.180;4.462;2022-08-19T04:44:13;150292.31;;;17.37;100.00
48630;BME280;34426;52.180;4.462;2022-08-19T04:46:41;150292.31;;;17.37;100.00
48630;BME280;34426;52.180;4.462;2022-08-19T04:49:09;150287.31;;;17.35;100.00
48630;BME280;34426;52.180;4.462;2022-08-19T04:51:41;150299.84;;;17.40;100.00
48630;BME280;34426;52.180;4.462;2022-08-19T04:54:09;150299.84;;;17.40;100.00
48630;BME280;34426;52.180;4.462;2022-08-19T04:56:37;150307.31;;;17.43;100.00
48630;BME280;34426;52.180;4.462;2022-08-19T04:59:06;150296.06;;;17.39;100.00
48630;BME280;34426;52.180;4.462;2022-08-19T05:01:34;150302.31;;;17.41;100.00
48630;BME280;34426;52.180;4.462;2022-08-19T05:04:03;150303.59;;;17.42;100.00
48630;BME280;34426;52.180;4.462;2022-08-19T05:06:31;150304.84;;;17.42;100.00
48630;BME280;34426;52.180;4.462;2022-08-19T05:09:00;150324.88;;;17.51;100.00
48630;BME280;34426;52.180;4.462;2022-08-19T05:11:29;150331.13;;;17.53;100.00
48630;BME280;34426;52.180;4.462;2022-08-19T05:13:57;150319.84;;;17.49;100.00
48630;BME280;34426;52.180;4.462;2022-08-19T05:16:25;150352.41;;;17.62;100.00
48630;BME280;34426;52.180;4.462;2022-08-19T05:18:53;150380.00;;;17.73;100.00
48630;BME280;34426;52.180;4.462;2022-08-19T05:21:21;150392.53;;;17.78;100.00
48630;BME280;34426;52.180;4.462;2022-08-19T05:23:49;150402.53;;;17.82;100.00
48630;BME280;34426;52.180;4.462;2022-08-19T05:26:18;150402.53;;;17.82;100.00
48630;BME280;34426;52.180;4.462;2022-08-19T05:28:45;150408.81;;;17.85;100.00
48630;BME280;34426;52.180;4.462;2022-08-19T05:31:13;150416.34;;;17.88;100.00
48630;BME280;34426;52.180;4.462;2022-08-19T05:33:42;150430.16;;;17.94;100.00
48630;BME280;34426;52.180;4.462;2022-08-19T05:36:10;150441.41;;;17.98;100.00
48630;BME280;34426;52.180;4.462;2022-08-19T05:38:37;150458.94;;;18.06;100.00
48630;BME280;34426;52.180;4.462;2022-08-19T05:41:08;150450.19;;;18.02;100.00
48630;BME280;34426;52.180;4.462;2022-08-19T05:43:37;150464.00;;;18.08;100.00
48630;BME280;34426;52.180;4.462;2022-08-19T05:46:05;150470.25;;;18.10;100.00
48630;BME280;34426;52.180;4.462;2022-08-19T05:48:32;150477.78;;;18.13;100.00
48630;BME280;34426;52.180;4.462;2022-08-19T05:51:04;150482.78;;;18.15;100.00
48630;BME280;34426;52.180;4.462;2022-08-19T05:53:32;150490.31;;;18.18;100.00
48630;BME280;34426;52.180;4.462;2022-08-19T05:56:04;150499.06;;;18.22;100.00
48630;BME280;34426;52.180;4.462;2022-08-19T05:58:31;150505.31;;;18.25;100.00
48630;BME280;34426;52.180;4.462;2022-08-19T06:01:01;150517.84;;;18.30;100.00
48630;BME280;34426;52.180;4.462;2022-08-19T06:03:28;150529.16;;;18.34;100.00
48630;BME280;34426;52.180;4.462;2022-08-19T06:05:56;150535.44;;;18.37;100.00
48630;BME280;34426;52.180;4.462;2022-08-19T06:08:23;150555.44;;;18.45;100.00
48630;BME280;34426;52.180;4.462;2022-08-19T06:10:51;150565.50;;;18.49;100.00
48630;BME280;34426;52.180;4.462;2022-08-19T06:13:18;150578.03;;;18.54;100.00
48630;BME280;34426;52.180;4.462;2022-08-19T06:15:46;150586.81;;;18.58;100.00
48630;BME280;34426;52.180;4.462;2022-08-19T06:18:15;150601.81;;;18.64;100.00
48630;BME280;34426;52.180;4.462;2022-08-19T06:20:43;150610.59;;;18.68;100.00
48630;BME280;34426;52.180;4.462;2022-08-19T06:23:10;150630.66;;;18.76;100.00
48630;BME280;34426;52.180;4.462;2022-08-19T06:25:39;150635.66;;;18.78;100.00
48630;BME280;34426;52.180;4.462;2022-08-19T06:28:06;150652.03;;;18.85;100.00
48630;BME280;34426;52.180;4.462;2022-08-19T06:30:33;150665.84;;;18.90;100.00
48630;BME280;34426;52.180;4.462;2022-08-19T06:33:01;150684.63;;;18.98;100.00
48630;BME280;34426;52.180;4.462;2022-08-19T06:35:30;150693.41;;;19.02;100.00
48630;BME280;34426;52.180;4.462;2022-08-19T06:37:58;150717.25;;;19.11;100.00
48630;BME280;34426;52.180;4.462;2022-08-19T06:40:25;150741.03;;;19.21;100.00
48630;BME280;34426;52.180;4.462;2022-08-19T06:42:53;150763.63;;;19.30;100.00
48630;BME280;34426;52.180;4.462;2022-08-19T06:45:20;150792.50;;;19.42;100.00
48630;BME280;34426;52.180;4.462;2022-08-19T06:47:47;150821.34;;;19.54;100.00
48630;BME280;34426;52.180;4.462;2022-08-19T06:50:15;150841.38;;;19.62;100.00
48630;BME280;34426;52.180;4.462;2022-08-19T06:52:44;150861.47;;;19.70;100.00
48630;BME280;34426;52.180;4.462;2022-08-19T06:55:11;150886.59;;;19.81;100.00
48630;BME280;34426;52.180;4.462;2022-08-19T06:57:39;150916.69;;;19.93;100.00
48630;BME280;34426;52.180;4.462;2022-08-19T07:00:07;150943.03;;;20.04;100.00
48630;BME280;34426;52.180;4.462;2022-08-19T07:02:35;150965.63;;;20.13;100.00
48630;BME280;34426;52.180;4.462;2022-08-19T07:05:02;150994.50;;;20.25;100.00
48630;BME280;34426;52.180;4.462;2022-08-19T07:07:30;151014.53;;;20.33;100.00
48630;BME280;34426;52.180;4.462;2022-08-19T07:09:59;151037.16;;;20.42;100.00
48630;BME280;34426;52.180;4.462;2022-08-19T07:12:28;151042.16;;;20.44;100.00
48630;BME280;34426;52.180;4.462;2022-08-19T07:14:55;151037.16;;;20.42;100.00
48630;BME280;34426;52.180;4.462;2022-08-19T07:17:22;151039.63;;;20.43;100.00
48630;BME280;34426;52.180;4.462;2022-08-19T07:19:50;151044.69;;;20.45;100.00
48630;BME280;34426;52.180;4.462;2022-08-19T07:22:17;151039.63;;;20.43;100.00
48630;BME280;34426;52.180;4.462;2022-08-19T07:24:45;151062.25;;;20.53;100.00
48630;BME280;34426;52.180;4.462;2022-08-19T07:27:14;151088.66;;;20.63;100.00
48630;BME280;34426;52.180;4.462;2022-08-19T07:29:41;151121.28;;;20.77;100.00
48630;BME280;34426;52.180;4.462;2022-08-19T07:32:09;151158.94;;;20.92;100.00
48630;BME280;34426;52.180;4.462;2022-08-19T07:34:36;151197.84;;;21.08;100.00
48630;BME280;34426;52.180;4.462;2022-08-19T07:37:04;151175.28;;;20.99;100.00
48630;BME280;34426;52.180;4.462;2022-08-19T07:39:33;151189.06;;;21.05;100.00
48630;BME280;34426;52.180;4.462;2022-08-19T07:42:04;151192.84;;;21.06;100.00
48630;BME280;34426;52.180;4.462;2022-08-19T07:44:35;151167.72;;;20.96;100.00
48630;BME280;34426;52.180;4.462;2022-08-19T07:47:03;151175.28;;;20.99;100.00
48630;BME280;34426;52.180;4.462;2022-08-19T07:49:32;151176.50;;;20.99;100.00
48630;BME280;34426;52.180;4.462;2022-08-19T07:52:01;151187.81;;;21.04;100.00
48630;BME280;34426;52.180;4.462;2022-08-19T07:54:32;151235.50;;;21.24;100.00
48630;BME280;34426;52.180;4.462;2022-08-19T07:56:59;151254.31;;;21.31;100.00
48630;BME280;34426;52.180;4.462;2022-08-19T07:59:27;151202.84;;;21.10;100.00
48630;BME280;34426;52.180;4.462;2022-08-19T08:01:57;151173.97;;;20.98;100.00
48630;BME280;34426;52.180;4.462;2022-08-19T08:04:25;151176.50;;;20.99;100.00
48630;BME280;34426;52.180;4.462;2022-08-19T08:06:53;151206.63;;;21.12;100.00
48630;BME280;34426;52.180;4.462;2022-08-19T08:09:23;151231.75;;;21.22;100.00
48630;BME280;34426;52.180;4.462;2022-08-19T08:11:53;151269.41;;;21.37;100.00
48630;BME280;34426;52.180;4.462;2022-08-19T08:14:23;151320.91;;;21.59;100.00
48630;BME280;34426;52.180;4.462;2022-08-19T08:16:52;151378.69;;;21.82;100.00
48630;BME280;34426;52.180;4.462;2022-08-19T08:19:22;151379.94;;;21.83;100.00
48630;BME280;34426;52.180;4.462;2022-08-19T08:21:51;151373.69;;;21.80;100.00
48630;BME280;34426;52.180;4.462;2022-08-19T08:24:18;151388.72;;;21.86;100.00
48630;BME280;34426;52.180;4.462;2022-08-19T08:26:46;151392.50;;;21.88;100.00
48630;BME280;34426;52.180;4.462;2022-08-19T08:29:13;151381.19;;;21.83;100.00
48630;BME280;34426;52.180;4.462;2022-08-19T08:31:42;151374.94;;;21.81;100.00
48630;BME280;34426;52.180;4.462;2022-08-19T08:34:10;151413.84;;;21.97;100.00
48630;BME280;34426;52.180;4.462;2022-08-19T08:36:41;151465.34;;;22.18;100.00
48630;BME280;34426;52.180;4.462;2022-08-19T08:39:10;151519.41;;;22.40;100.00
48630;BME280;34426;52.180;4.462;2022-08-19T08:41:45;151553.31;;;22.54;100.00
48630;BME280;34426;52.180;4.462;2022-08-19T08:44:17;151602.34;;;22.74;100.00
48630;BME280;34426;52.180;4.462;2022-08-19T08:46:48;151579.69;;;22.64;100.00
48630;BME280;34426;52.180;4.462;2022-08-19T08:49:28;151508.09;;;22.35;100.00
48630;BME280;34426;52.180;4.462;2022-08-19T08:52:03;151495.50;;;22.30;100.00
48630;BME280;34426;52.180;4.462;2022-08-19T08:54:35;151542.00;;;22.49;100.00
48630;BME280;34426;52.180;4.462;2022-08-19T08:57:06;151544.53;;;22.50;100.00
48630;BME280;34426;52.180;4.462;2022-08-19T08:59:37;151542.00;;;22.49;100.00
48630;BME280;34426;52.180;4.462;2022-08-19T09:02:06;151499.28;;;22.31;100.00
48630;BME280;34426;52.180;4.462;2022-08-19T09:04:35;151454.06;;;22.13;100.00
48630;BME280;34426;52.180;4.462;2022-08-19T09:07:15;151408.84;;;21.94;100.00
48630;BME280;34426;52.180;4.462;2022-08-19T09:09:49;151396.28;;;21.89;100.00
48630;BME280;34426;52.180;4.462;2022-08-19T09:12:22;151445.28;;;22.09;100.00
48630;BME280;34426;52.180;4.462;2022-08-19T09:14:55;151499.28;;;22.31;100.00
48630;BME280;34426;52.180;4.462;2022-08-19T09:17:24;151505.59;;;22.34;100.00
48630;BME280;34426;52.180;4.462;2022-08-19T09:19:53;151477.91;;;22.23;100.00
48630;BME280;34426;52.180;4.462;2022-08-19T09:22:25;151470.41;;;22.20;100.00
48630;BME280;34426;52.180;4.462;2022-08-19T09:24:53;151477.91;;;22.23;100.00
48630;BME280;34426;52.180;4.462;2022-08-19T09:27:21;151461.56;;;22.16;100.00
48630;BME280;34426;52.180;4.462;2022-08-19T09:29:50;151475.41;;;22.22;100.00
48630;BME280;34426;52.180;4.462;2022-08-19T09:32:18;151510.63;;;22.36;100.00
48630;BME280;34426;52.180;4.462;2022-08-19T09:34:45;151521.94;;;22.41;100.00
48630;BME280;34426;52.180;4.462;2022-08-19T09:37:14;151547.06;;;22.51;100.00
48630;BME280;34426;52.180;4.462;2022-08-19T09:39:43;151562.13;;;22.57;100.00
48630;BME280;34426;52.180;4.462;2022-08-19T09:42:11;151570.91;;;22.61;100.00
48630;BME280;34426;52.180;4.462;2022-08-19T09:44:38;151602.34;;;22.74;100.00
48630;BME280;34426;52.180;4.462;2022-08-19T09:47:06;151623.69;;;22.82;100.00
48630;BME280;34426;52.180;4.462;2022-08-19T09:49:33;151661.41;;;22.98;100.00
48630;BME280;34426;52.180;4.462;2022-08-19T09:52:00;151714.19;;;23.19;100.00
48630;BME280;34426;52.180;4.462;2022-08-19T09:54:28;151730.53;;;23.26;98.74
48630;BME280;34426;52.180;4.462;2022-08-19T09:56:59;151749.41;;;23.34;97.87
48630;BME280;34426;52.180;4.462;2022-08-19T09:59:27;151768.25;;;23.41;97.90
48630;BME280;34426;52.180;4.462;2022-08-19T10:01:55;151770.78;;;23.42;98.58
48630;BME280;34426;52.180;4.462;2022-08-19T10:04:22;151759.44;;;23.38;98.03
48630;BME280;34426;52.180;4.462;2022-08-19T10:06:51;151743.13;;;23.31;97.09
48630;BME280;34426;52.180;4.462;2022-08-19T10:09:19;151826.09;;;23.65;96.36
48630;BME280;34426;52.180;4.462;2022-08-19T10:11:46;151855.00;;;23.77;94.12
48630;BME280;34426;52.180;4.462;2022-08-19T10:14:16;151885.22;;;23.89;92.51
48630;BME280;34426;52.180;4.462;2022-08-19T10:16:44;151904.06;;;23.97;91.97
48630;BME280;34426;52.180;4.462;2022-08-19T10:19:11;151922.94;;;24.05;91.35
48630;BME280;34426;52.180;4.462;2022-08-19T10:21:38;151882.69;;;23.88;92.08
48630;BME280;34426;52.180;4.462;2022-08-19T10:24:06;151836.13;;;23.69;92.41
48630;BME280;34426;52.180;4.462;2022-08-19T10:26:37;151834.88;;;23.69;93.17
48630;BME280;34426;52.180;4.462;2022-08-19T10:29:05;151798.41;;;23.54;93.55
48630;BME280;34426;52.180;4.462;2022-08-19T10:31:35;151817.28;;;23.61;92.17
48630;BME280;34426;52.180;4.462;2022-08-19T10:34:03;151848.69;;;23.74;92.82
48630;BME280;34426;52.180;4.462;2022-08-19T10:36:30;151818.53;;;23.62;92.67
48630;BME280;34426;52.180;4.462;2022-08-19T10:38:59;151783.34;;;23.48;93.11
48630;BME280;34426;52.180;4.462;2022-08-19T10:41:29;151731.78;;;23.27;94.35
48630;BME280;34426;52.180;4.462;2022-08-19T10:43:58;151729.28;;;23.25;95.02
48630;BME280;34426;52.180;4.462;2022-08-19T10:46:27;151706.69;;;23.16;95.17
48630;BME280;34426;52.180;4.462;2022-08-19T10:48:57;151705.41;;;23.16;97.19
48630;BME280;34426;52.180;4.462;2022-08-19T10:51:24;151712.97;;;23.19;98.70
48630;BME280;34426;52.180;4.462;2022-08-19T10:53:52;151765.75;;;23.40;98.22
48630;BME280;34426;52.180;4.462;2022-08-19T10:56:20;151763.22;;;23.39;97.32
48630;BME280;34426;52.180;4.462;2022-08-19T10:58:48;151824.84;;;23.65;96.37
48630;BME280;34426;52.180;4.462;2022-08-19T11:01:16;151855.00;;;23.77;93.95
48630;BME280;34426;52.180;4.462;2022-08-19T11:03:43;151858.78;;;23.78;93.27
48630;BME280;34426;52.180;4.462;2022-08-19T11:06:13;151988.31;;;24.31;93.09
48630;BME280;34426;52.180;4.462;2022-08-19T11:08:41;152017.22;;;24.43;90.33
48630;BME280;34426;52.180;4.462;2022-08-19T11:11:13;151989.59;;;24.32;89.63
48630;BME280;34426;52.180;4.462;2022-08-19T11:13:41;151919.16;;;24.03;91.51
48630;BME280;34426;52.180;4.462;2022-08-19T11:16:11;151876.41;;;23.86;92.18
48630;BME280;34426;52.180;4.462;2022-08-19T11:18:41;151824.84;;;23.65;92.64
48630;BME280;34426;52.180;4.462;2022-08-19T11:21:15;151789.63;;;23.50;91.73
48630;BME280;34426;52.180;4.462;2022-08-19T11:23:43;151751.91;;;23.35;93.63
48630;BME280;34426;52.180;4.462;2022-08-19T11:26:11;151716.72;;;23.20;94.35
48630;BME280;34426;52.180;4.462;2022-08-19T11:28:39;151714.19;;;23.19;93.90
48630;BME280;34426;52.180;4.462;2022-08-19T11:31:10;151768.25;;;23.41;94.88
48630;BME280;34426;52.180;4.462;2022-08-19T11:33:38;151793.38;;;23.52;94.95
48630;BME280;34426;52.180;4.462;2022-08-19T11:36:07;151838.66;;;23.70;93.30
48630;BME280;34426;52.180;4.462;2022-08-19T11:38:36;151924.19;;;24.05;92.06
48630;BME280;34426;52.180;4.462;2022-08-19T11:41:06;151960.66;;;24.20;89.80
48630;BME280;34426;52.180;4.462;2022-08-19T11:43:34;151998.38;;;24.35;90.69
48630;BME280;34426;52.180;4.462;2022-08-19T11:46:05;152000.88;;;24.36;89.44
48630;BME280;34426;52.180;4.462;2022-08-19T11:48:33;152027.28;;;24.47;88.20
48630;BME280;34426;52.180;4.462;2022-08-19T11:51:05;152018.47;;;24.44;88.00
48630;BME280;34426;52.180;4.462;2022-08-19T11:53:33;152076.38;;;24.67;87.22
48630;BME280;34426;52.180;4.462;2022-08-19T11:56:03;152161.91;;;25.02;84.91
48630;BME280;34426;52.180;4.462;2022-08-19T11:58:32;152203.44;;;25.19;83.93
48630;BME280;34426;52.180;4.462;2022-08-19T12:00:59;152169.47;;;25.05;84.40
48630;BME280;34426;52.180;4.462;2022-08-19T12:03:27;152104.09;;;24.79;85.22
48630;BME280;34426;52.180;4.462;2022-08-19T12:05:55;152041.16;;;24.53;87.07
48630;BME280;34426;52.180;4.462;2022-08-19T12:08:22;152023.53;;;24.46;87.81
48630;BME280;34426;52.180;4.462;2022-08-19T12:10:50;152041.16;;;24.53;88.62
48630;BME280;34426;52.180;4.462;2022-08-19T12:13:22;152032.34;;;24.49;88.76
48630;BME280;34426;52.180;4.462;2022-08-19T12:15:48;152100.31;;;24.77;87.68
48630;BME280;34426;52.180;4.462;2022-08-19T12:18:16;152194.63;;;25.16;86.12
48630;BME280;34426;52.180;4.462;2022-08-19T12:20:44;152211.00;;;25.22;84.49
48630;BME280;34426;52.180;4.462;2022-08-19T12:23:11;152213.53;;;25.23;84.35
48630;BME280;34426;52.180;4.462;2022-08-19T12:25:44;152219.84;;;25.26;85.51
48630;BME280;34426;52.180;4.462;2022-08-19T12:28:12;152245.00;;;25.36;84.63
48630;BME280;34426;52.180;4.462;2022-08-19T12:30:41;152228.66;;;25.29;82.01
48630;BME280;34426;52.180;4.462;2022-08-19T12:33:09;152258.84;;;25.42;82.07
48630;BME280;34426;52.180;4.462;2022-08-19T12:35:40;152256.34;;;25.41;82.27
48630;BME280;34426;52.180;4.462;2022-08-19T12:38:08;152238.75;;;25.34;80.75
48630;BME280;34426;52.180;4.462;2022-08-19T12:40:36;152189.63;;;25.14;80.98
48630;BME280;34426;52.180;4.462;2022-08-19T12:43:04;152183.28;;;25.11;81.53
48630;BME280;34426;52.180;4.462;2022-08-19T12:45:31;152159.41;;;25.01;81.86
48630;BME280;34426;52.180;4.462;2022-08-19T12:47:59;152158.13;;;25.01;82.28
48630;BME280;34426;52.180;4.462;2022-08-19T12:50:28;152155.66;;;25.00;82.51